Terminal Aerodrome Forecast
Issued by NWS Twin Cities, MN

Home | Current Version | Previous Version | Text Only | Print | Product List | Glossary On
Versions: 1 2 3 4 5 6 7 8 9 10 11 12 13 14 15 16
000
FTUS43 KMPX 161400 AAA
TAFSTC
TAF AMD
KSTC 161442Z 1615/1712 09015G21KT 1 1/2SM -SN OVC012
      TEMPO 1615/1619 1/4SM +SN VV007
     FM162200 04012G18KT 1 1/2SM -SN VV006
     FM170200 36012G18KT 4SM -SN OVC015
     FM170700 33010G18KT P6SM OVC020=

USA.gov is the U.S. government's official web portal to all federal, state and local government web resources and services.